Map

Track Data

SID SEASON NUMBER BASIN SUBBASIN NAME ISO_TIME NATURE LAT LON WMO_WIND WMO_PRES WMO_AGENCY TRACK_TYPE DIST2LAND LANDFALL IFLAG USA_AGENCY USA_ATCF_ID USA_LAT USA_LON USA_RECORD USA_STATUS USA_WIND USA_PRES USA_SSHS USA_R34_NE USA_R34_SE USA_R34_SW USA_R34_NW USA_R50_NE USA_R50_SE USA_R50_SW USA_R50_NW USA_R64_NE USA_R64_SE USA_R64_SW USA_R64_NW USA_POCI USA_ROCI USA_RMW USA_EYE TOKYO_LAT TOKYO_LON TOKYO_GRADE TOKYO_WIND TOKYO_PRES TOKYO_R50_DIR TOKYO_R50_LONG TOKYO_R50_SHORT TOKYO_R30_DIR TOKYO_R30_LONG TOKYO_R30_SHORT TOKYO_LAND CMA_LAT CMA_LON CMA_CAT CMA_WIND CMA_PRES HKO_LAT HKO_LON HKO_CAT HKO_WIND HKO_PRES NEWDELHI_LAT NEWDELHI_LON NEWDELHI_GRADE NEWDELHI_WIND NEWDELHI_PRES NEWDELHI_CI NEWDELHI_DP NEWDELHI_POCI REUNION_LAT REUNION_LON REUNION_TYPE REUNION_WIND REUNION_PRES REUNION_TNUM REUNION_CI REUNION_RMW REUNION_R34_NE REUNION_R34_SE REUNION_R34_SW REUNION_R34_NW REUNION_R50_NE REUNION_R50_SE REUNION_R50_SW REUNION_R50_NW REUNION_R64_NE REUNION_R64_SE REUNION_R64_SW REUNION_R64_NW BOM_LAT BOM_LON BOM_TYPE BOM_WIND BOM_PRES BOM_TNUM BOM_CI BOM_RMW BOM_R34_NE BOM_R34_SE BOM_R34_SW BOM_R34_NW BOM_R50_NE BOM_R50_SE BOM_R50_SW BOM_R50_NW BOM_R64_NE BOM_R64_SE BOM_R64_SW BOM_R64_NW BOM_ROCI BOM_POCI BOM_EYE BOM_POS_METHOD BOM_PRES_METHOD NADI_LAT NADI_LON NADI_CAT NADI_WIND NADI_PRES WELLINGTON_LAT WELLINGTON_LON WELLINGTON_WIND WELLINGTON_PRES DS824_LAT DS824_LON DS824_STAGE DS824_WIND DS824_PRES TD9636_LAT TD9636_LON TD9636_STAGE TD9636_WIND TD9636_PRES TD9635_LAT TD9635_LON TD9635_WIND TD9635_PRES TD9635_ROCI NEUMANN_LAT NEUMANN_LON NEUMANN_CLASS NEUMANN_WIND NEUMANN_PRES MLC_LAT MLC_LON MLC_CLASS MLC_WIND MLC_PRES USA_GUST BOM_GUST BOM_GUST_PER REUNION_GUST REUNION_GUST_PER USA_SEAHGT USA_SEARAD_NE USA_SEARAD_SE USA_SEARAD_SW USA_SEARAD_NW STORM_SPEED STORM_DIR
1922011S18049 1922 2 SI MM NOT_NAMED 1922-01-11 06:00:00 NR -18.1000 49.0000 reunion main 0 0 _____O________ -1 -18.1000 49.0000 99 9.90000 1 0
1922011S18049 1922 2 SI MM NOT_NAMED 1922-01-11 09:00:00 NR -18.1068 48.9747 main 0 0 _____P________ -1 -18.1068 48.9747 99 0 237
1922011S18049 1922 2 SI MM NOT_NAMED 1922-01-11 12:00:00 NR -18.1213 48.9554 main 0 0 _____P________ -1 -18.1213 48.9554 99 1 0
1922011S18049 1922 2 SI MM NOT_NAMED 1922-01-11 15:00:00 NR -18.1512 48.9480 main 0 0 _____P________ -1 -18.1512 48.9480 99 1 0
1922011S18049 1922 2 SI MM NOT_NAMED 1922-01-11 18:00:00 NR -18.2041 48.9585 main 0 0 _____P________ -1 -18.2041 48.9585 99 1 163
1922011S18049 1922 2 SI MM NOT_NAMED 1922-01-11 21:00:00 NR -18.2878 48.9929 main 0 0 _____P________ -1 -18.2878 48.9929 99 2 155
1922011S18049 1922 2 SI MM NOT_NAMED 1922-01-12 00:00:00 NR -18.4099 49.0571 main 0 0 _____P________ -1 -18.4099 49.0571 99 3 151
1922011S18049 1922 2 SI MM NOT_NAMED 1922-01-12 03:00:00 NR -18.5781 49.1575 main 0 0 _____P________ -1 -18.5781 49.1575 99 5 149
1922011S18049 1922 2 SI MM NOT_NAMED 1922-01-12 06:00:00 NR -18.8000 49.3000 reunion main 15 15 _____O________ -1 -18.8000 49.3000 99 9.90000 6 148
1922011S18049 1922 2 SI MM NOT_NAMED 1922-01-12 09:00:00 NR -19.0799 49.4887 main 43 43 _____P________ -1 -19.0799 49.4887 99 7 147
1922011S18049 1922 2 SI MM NOT_NAMED 1922-01-12 12:00:00 NR -19.4085 49.7182 main 76 76 _____P________ -1 -19.4085 49.7182 99 8 146
1922011S18049 1922 2 SI MM NOT_NAMED 1922-01-12 15:00:00 NR -19.7733 49.9805 main 123 123 _____P________ -1 -19.7733 49.9805 99 9 146
1922011S18049 1922 2 SI MM NOT_NAMED 1922-01-12 18:00:00 NR -20.1616 50.2677 main 158 158 _____P________ -1 -20.1616 50.2677 99 10 145
1922011S18049 1922 2 SI MM NOT_NAMED 1922-01-12 21:00:00 NR -20.5609 50.5715 main 199 199 _____P________ -1 -20.5609 50.5715 99 10 144
1922011S18049 1922 2 SI MM NOT_NAMED 1922-01-13 00:00:00 NR -20.9587 50.8839 main 245 245 _____P________ -1 -20.9587 50.8839 99 10 143
1922011S18049 1922 2 SI MM NOT_NAMED 1922-01-13 03:00:00 NR -21.3425 51.1963 main 287 287 _____P________ -1 -21.3425 51.1963 99 9 142
1922011S18049 1922 2 SI MM NOT_NAMED 1922-01-13 06:00:00 NR -21.7000 51.5000 reunion main 330 330 _____O________ -1 -21.7000 51.5000 99 9.90000 8 142
1922011S18049 1922 2 SI MM NOT_NAMED 1922-01-13 09:00:00 NR -21.9907 51.7418 main 357 352 _____P________ -1 -21.9907 51.7418 99 7 142
1922011S18049 1922 2 SI MM NOT_NAMED 1922-01-13 12:00:00 NR -22.2613 51.9767 main 356 346 _____P________ -1 -22.2613 51.9767 99 7 141
1922011S18049 1922 2 SI MM NOT_NAMED 1922-01-13 15:00:00 NR -22.5144 52.2091 main 346 337 _____P________ -1 -22.5144 52.2091 99 7 139
1922011S18049 1922 2 SI MM NOT_NAMED 1922-01-13 18:00:00 NR -22.7523 52.4439 main 342 328 _____P________ -1 -22.7523 52.4439 99 6 137
1922011S18049 1922 2 SI MM NOT_NAMED 1922-01-13 21:00:00 NR -22.9774 52.6856 main 328 318 _____P________ -1 -22.9774 52.6856 99 6 134
1922011S18049 1922 2 SI MM NOT_NAMED 1922-01-14 00:00:00 NR -23.1922 52.9390 main 325 317 _____P________ -1 -23.1922 52.9390 99 6 131
1922011S18049 1922 2 SI MM NOT_NAMED 1922-01-14 03:00:00 NR -23.3990 53.2089 main 318 312 _____P________ -1 -23.3990 53.2089 99 7 128
1922011S18049 1922 2 SI MM NOT_NAMED 1922-01-14 06:00:00 NR -23.6000 53.5000 reunion main 316 310 _____O________ -1 -23.6000 53.5000 99 9.90000 7 127
1922011S18049 1922 2 SI MM NOT_NAMED 1922-01-14 09:00:00 NR -23.8047 53.7919 main 319 314 _____P________ -1 -23.8047 53.7919 99 7 126
1922011S18049 1922 2 SI MM NOT_NAMED 1922-01-14 12:00:00 NR -24.0009 54.1000 main 325 322 _____P________ -1 -24.0009 54.1000 99 7 124
1922011S18049 1922 2 SI MM NOT_NAMED 1922-01-14 15:00:00 NR -24.1904 54.4281 main 336 332 _____P________ -1 -24.1904 54.4281 99 7 121
1922011S18049 1922 2 SI MM NOT_NAMED 1922-01-14 18:00:00 NR -24.3750 54.7799 main 345 342 _____P________ -1 -24.3750 54.7799 99 8 119
1922011S18049 1922 2 SI MM NOT_NAMED 1922-01-14 21:00:00 NR -24.5566 55.1591 main 360 358 _____P________ -1 -24.5566 55.1591 99 8 117
1922011S18049 1922 2 SI MM NOT_NAMED 1922-01-15 00:00:00 NR -24.7369 55.5696 main 368 368 _____P________ -1 -24.7369 55.5696 99 9 115
1922011S18049 1922 2 SI MM NOT_NAMED 1922-01-15 03:00:00 NR -24.9175 56.0152 main 393 393 _____P________ -1 -24.9175 56.0152 99 9 113
1922011S18049 1922 2 SI MM NOT_NAMED 1922-01-15 06:00:00 NR -25.1000 56.5000 reunion main 423 423 _____O________ -1 -25.1000 56.5000 99 9.90000 11 112
1922011S18049 1922 2 SI MM NOT_NAMED 1922-01-15 09:00:00 NR -25.3193 57.1107 main 461 461 _____P________ -1 -25.3193 57.1107 99 12 111
1922011S18049 1922 2 SI MM NOT_NAMED 1922-01-15 12:00:00 NR -25.5415 57.7742 main 510 510 _____P________ -1 -25.5415 57.7742 99 13 110
1922011S18049 1922 2 SI MM NOT_NAMED 1922-01-15 15:00:00 NR -25.7601 58.4665 main 573 573 _____P________ -1 -25.7601 58.4665 99 13 109
1922011S18049 1922 2 SI MM NOT_NAMED 1922-01-15 18:00:00 NR -25.9690 59.1633 main 628 628 _____P________ -1 -25.9690 59.1633 99 13 108
1922011S18049 1922 2 SI MM NOT_NAMED 1922-01-15 21:00:00 NR -26.1625 59.8401 main 672 672 _____P________ -1 -26.1625 59.8401 99 12 107
1922011S18049 1922 2 SI MM NOT_NAMED 1922-01-16 00:00:00 NR -26.3353 60.4719 main 708 708 _____P________ -1 -26.3353 60.4719 99 11 107
1922011S18049 1922 2 SI MM NOT_NAMED 1922-01-16 03:00:00 NR -26.4827 61.0336 main 750 750 _____P________ -1 -26.4827 61.0336 99 10 106
1922011S18049 1922 2 SI MM NOT_NAMED 1922-01-16 06:00:00 NR -26.6000 61.5000 reunion main 783 783 _____O________ -1 -26.6000 61.5000 99 9.90000 8 105
1922011S18049 1922 2 SI MM NOT_NAMED 1922-01-16 09:00:00 NR -26.6846 61.8525 main 814 814 _____P________ -1 -26.6846 61.8525 99 6 105
1922011S18049 1922 2 SI MM NOT_NAMED 1922-01-16 12:00:00 NR -26.7399 62.0992 main 825 825 _____P________ -1 -26.7399 62.0992 99 4 103
1922011S18049 1922 2 SI MM NOT_NAMED 1922-01-16 15:00:00 NR -26.7705 62.2551 main 845 845 _____P________ -1 -26.7705 62.2551 99 2 101
1922011S18049 1922 2 SI MM NOT_NAMED 1922-01-16 18:00:00 NR -26.7807 62.3351 main 845 845 _____P________ -1 -26.7807 62.3351 99 1 93
1922011S18049 1922 2 SI MM NOT_NAMED 1922-01-16 21:00:00 NR -26.7747 62.3544 main 851 845 _____P________ -1 -26.7747 62.3544 99 0 0
1922011S18049 1922 2 SI MM NOT_NAMED 1922-01-17 00:00:00 NR -26.7565 62.3282 main 845 836 _____P________ -1 -26.7565 62.3282 99 1 304
1922011S18049 1922 2 SI MM NOT_NAMED 1922-01-17 03:00:00 NR -26.7303 62.2717 main 836 830 _____P________ -1 -26.7303 62.2717 99 1 297
1922011S18049 1922 2 SI MM NOT_NAMED 1922-01-17 06:00:00 NR -26.7000 62.2000 reunion main 830 _____O________ -1 -26.7000 62.2000 99 9.90000 1 293

About IBTrACS Database

This database is a web-friendly format of International Best Track Archive for Climate Stewardship (IBTrACS), a global best track data archive curated by NOAA dating back to 1842.

Updated: 2021-10-21